sensor_id;sensor_type;location;lat;lon;timestamp;pressure;altitude;pressure_sealevel;temperature;humidity
84957;BME280;75252;45.438;-73.814;2024-01-16T00:01:42;101868.41;;;-5.54;64.54
84957;BME280;75252;45.438;-73.814;2024-01-16T00:04:08;101870.19;;;-5.53;64.77
84957;BME280;75252;45.438;-73.814;2024-01-16T00:06:41;101871.81;;;-5.55;64.33
84957;BME280;75252;45.438;-73.814;2024-01-16T00:09:08;101875.25;;;-5.54;64.89
84957;BME280;75252;45.438;-73.814;2024-01-16T00:11:44;101887.31;;;-5.55;64.95
84957;BME280;75252;45.438;-73.814;2024-01-16T00:14:10;101878.03;;;-5.50;64.23
84957;BME280;75252;45.438;-73.814;2024-01-16T00:16:43;101873.75;;;-5.49;63.72
84957;BME280;75252;45.438;-73.814;2024-01-16T00:19:11;101874.66;;;-5.49;64.57
84957;BME280;75252;45.438;-73.814;2024-01-16T00:21:41;101888.38;;;-5.50;65.14
84957;BME280;75252;45.438;-73.814;2024-01-16T00:24:07;101896.19;;;-5.48;62.55
84957;BME280;75252;45.438;-73.814;2024-01-16T00:26:33;101880.44;;;-5.54;63.82
84957;BME280;75252;45.438;-73.814;2024-01-16T00:28:59;101882.16;;;-5.55;63.29
84957;BME280;75252;45.438;-73.814;2024-01-16T00:31:28;101872.69;;;-5.54;63.10
84957;BME280;75252;45.438;-73.814;2024-01-16T00:33:53;101866.66;;;-5.55;63.83
84957;BME280;75252;45.438;-73.814;2024-01-16T00:36:19;101869.88;;;-5.60;63.48
84957;BME280;75252;45.438;-73.814;2024-01-16T00:38:45;101874.91;;;-5.63;64.31
84957;BME280;75252;45.438;-73.814;2024-01-16T00:41:12;101879.28;;;-5.62;65.15
84957;BME280;75252;45.438;-73.814;2024-01-16T00:43:41;101871.59;;;-5.61;63.95
84957;BME280;75252;45.438;-73.814;2024-01-16T00:46:07;101869.88;;;-5.60;65.13
84957;BME280;75252;45.438;-73.814;2024-01-16T00:48:33;101876.56;;;-5.65;65.11
84957;BME280;75252;45.438;-73.814;2024-01-16T00:50:59;101876.84;;;-5.58;65.19
84957;BME280;75252;45.438;-73.814;2024-01-16T00:53:26;101866.16;;;-5.67;65.67
84957;BME280;75252;45.438;-73.814;2024-01-16T00:55:52;101864.28;;;-5.71;65.93
84957;BME280;75252;45.438;-73.814;2024-01-16T00:58:23;101866.63;;;-5.77;67.76
84957;BME280;75252;45.438;-73.814;2024-01-16T01:00:49;101880.16;;;-5.84;67.09
84957;BME280;75252;45.438;-73.814;2024-01-16T01:03:15;101872.16;;;-5.90;68.04
84957;BME280;75252;45.438;-73.814;2024-01-16T01:05:41;101883.91;;;-5.96;69.44
84957;BME280;75252;45.438;-73.814;2024-01-16T01:08:07;101874.03;;;-6.06;69.41
84957;BME280;75252;45.438;-73.814;2024-01-16T01:10:33;101880.78;;;-6.10;69.63
84957;BME280;75252;45.438;-73.814;2024-01-16T01:12:59;101880.03;;;-6.07;68.82
84957;BME280;75252;45.438;-73.814;2024-01-16T01:15:28;101887.00;;;-6.05;69.31
84957;BME280;75252;45.438;-73.814;2024-01-16T01:17:54;101879.81;;;-6.12;67.00
84957;BME280;75252;45.438;-73.814;2024-01-16T01:20:20;101895.41;;;-6.09;66.72
84957;BME280;75252;45.438;-73.814;2024-01-16T01:22:46;101884.25;;;-6.09;68.90
84957;BME280;75252;45.438;-73.814;2024-01-16T01:25:12;101881.50;;;-6.12;69.90
84957;BME280;75252;45.438;-73.814;2024-01-16T01:27:39;101876.84;;;-6.21;69.92
84957;BME280;75252;45.438;-73.814;2024-01-16T01:30:08;101891.53;;;-6.20;70.60
84957;BME280;75252;45.438;-73.814;2024-01-16T01:32:38;101886.41;;;-6.18;70.34
84957;BME280;75252;45.438;-73.814;2024-01-16T01:35:05;101878.50;;;-6.23;71.26
84957;BME280;75252;45.438;-73.814;2024-01-16T01:37:31;101878.63;;;-6.20;68.85
84957;BME280;75252;45.438;-73.814;2024-01-16T01:39:57;101888.03;;;-6.20;68.00
84957;BME280;75252;45.438;-73.814;2024-01-16T01:42:23;101890.94;;;-6.13;67.59
84957;BME280;75252;45.438;-73.814;2024-01-16T01:44:49;101891.78;;;-6.14;67.32
84957;BME280;75252;45.438;-73.814;2024-01-16T01:47:15;101888.31;;;-6.14;67.42
84957;BME280;75252;45.438;-73.814;2024-01-16T01:49:41;101887.41;;;-6.15;65.13
84957;BME280;75252;45.438;-73.814;2024-01-16T01:52:07;101893.47;;;-6.14;65.19
84957;BME280;75252;45.438;-73.814;2024-01-16T01:54:36;101882.09;;;-6.19;65.48
84957;BME280;75252;45.438;-73.814;2024-01-16T01:57:03;101890.63;;;-6.20;65.63
84957;BME280;75252;45.438;-73.814;2024-01-16T01:59:31;101895.03;;;-6.18;66.05
84957;BME280;75252;45.438;-73.814;2024-01-16T02:01:57;101888.81;;;-6.23;63.70
84957;BME280;75252;45.438;-73.814;2024-01-16T02:04:25;101894.59;;;-6.29;65.01
84957;BME280;75252;45.438;-73.814;2024-01-16T02:06:52;101886.97;;;-6.25;64.24
84957;BME280;75252;45.438;-73.814;2024-01-16T02:09:20;101879.78;;;-6.33;65.69
84957;BME280;75252;45.438;-73.814;2024-01-16T02:11:52;101885.88;;;-6.31;65.36
84957;BME280;75252;45.438;-73.814;2024-01-16T02:14:18;101880.47;;;-6.37;65.39
84957;BME280;75252;45.438;-73.814;2024-01-16T02:16:44;101905.72;;;-6.30;63.62
84957;BME280;75252;45.438;-73.814;2024-01-16T02:19:13;101899.56;;;-6.33;63.23
84957;BME280;75252;45.438;-73.814;2024-01-16T02:21:41;101909.78;;;-6.35;64.22
84957;BME280;75252;45.438;-73.814;2024-01-16T02:24:08;101902.06;;;-6.35;65.16
84957;BME280;75252;45.438;-73.814;2024-01-16T02:26:35;101901.38;;;-6.31;64.23
84957;BME280;75252;45.438;-73.814;2024-01-16T02:29:02;101900.56;;;-6.30;64.36
84957;BME280;75252;45.438;-73.814;2024-01-16T02:31:30;101898.06;;;-6.28;63.29
84957;BME280;75252;45.438;-73.814;2024-01-16T02:33:56;101898.09;;;-6.27;63.61
84957;BME280;75252;45.438;-73.814;2024-01-16T02:36:24;101897.84;;;-6.33;64.70
84957;BME280;75252;45.438;-73.814;2024-01-16T02:38:50;101903.78;;;-6.35;64.07
84957;BME280;75252;45.438;-73.814;2024-01-16T02:41:16;101901.88;;;-6.39;65.68
84957;BME280;75252;45.438;-73.814;2024-01-16T02:43:43;101902.63;;;-6.42;64.31
84957;BME280;75252;45.438;-73.814;2024-01-16T02:46:09;101906.84;;;-6.44;64.49
84957;BME280;75252;45.438;-73.814;2024-01-16T02:48:35;101901.56;;;-6.47;64.29
84957;BME280;75252;45.438;-73.814;2024-01-16T02:51:02;101897.19;;;-6.48;63.51
84957;BME280;75252;45.438;-73.814;2024-01-16T02:53:29;101894.81;;;-6.43;63.14
84957;BME280;75252;45.438;-73.814;2024-01-16T02:55:55;101904.94;;;-6.48;64.40
84957;BME280;75252;45.438;-73.814;2024-01-16T02:58:25;101911.78;;;-6.48;64.41
84957;BME280;75252;45.438;-73.814;2024-01-16T03:00:51;101911.31;;;-6.40;63.52
84957;BME280;75252;45.438;-73.814;2024-01-16T03:03:17;101896.50;;;-6.44;63.62
84957;BME280;75252;45.438;-73.814;2024-01-16T03:05:42;101898.41;;;-6.40;64.25
84957;BME280;75252;45.438;-73.814;2024-01-16T03:08:08;101888.78;;;-6.44;63.68
84957;BME280;75252;45.438;-73.814;2024-01-16T03:10:34;101895.50;;;-6.47;63.70
84957;BME280;75252;45.438;-73.814;2024-01-16T03:13:00;101891.34;;;-6.44;65.04
84957;BME280;75252;45.438;-73.814;2024-01-16T03:15:26;101886.75;;;-6.51;64.57
84957;BME280;75252;45.438;-73.814;2024-01-16T03:17:52;101892.72;;;-6.52;62.91
84957;BME280;75252;45.438;-73.814;2024-01-16T03:20:18;101883.91;;;-6.57;63.10
84957;BME280;75252;45.438;-73.814;2024-01-16T03:22:44;101883.28;;;-6.51;63.10
84957;BME280;75252;45.438;-73.814;2024-01-16T03:25:10;101876.03;;;-6.60;63.54
84957;BME280;75252;45.438;-73.814;2024-01-16T03:27:37;101878.00;;;-6.73;63.75
84957;BME280;75252;45.438;-73.814;2024-01-16T03:30:04;101890.84;;;-6.75;62.87
84957;BME280;75252;45.438;-73.814;2024-01-16T03:32:32;101887.63;;;-6.69;61.26
84957;BME280;75252;45.438;-73.814;2024-01-16T03:34:58;101881.13;;;-6.80;62.95
84957;BME280;75252;45.438;-73.814;2024-01-16T03:37:23;101882.81;;;-6.81;62.47
84957;BME280;75252;45.438;-73.814;2024-01-16T03:39:49;101891.28;;;-6.83;62.08
84957;BME280;75252;45.438;-73.814;2024-01-16T03:42:16;101890.56;;;-6.81;61.69
84957;BME280;75252;45.438;-73.814;2024-01-16T03:44:42;101875.50;;;-6.91;62.83
84957;BME280;75252;45.438;-73.814;2024-01-16T03:47:09;101885.97;;;-6.88;62.98
84957;BME280;75252;45.438;-73.814;2024-01-16T03:49:35;101876.91;;;-6.97;63.79
84957;BME280;75252;45.438;-73.814;2024-01-16T03:52:01;101881.09;;;-6.99;62.87
84957;BME280;75252;45.438;-73.814;2024-01-16T03:54:26;101877.72;;;-6.98;62.06
84957;BME280;75252;45.438;-73.814;2024-01-16T03:56:53;101874.94;;;-7.03;62.78
84957;BME280;75252;45.438;-73.814;2024-01-16T03:59:19;101863.69;;;-7.05;62.23
84957;BME280;75252;45.438;-73.814;2024-01-16T04:01:45;101873.03;;;-7.07;61.53
84957;BME280;75252;45.438;-73.814;2024-01-16T04:04:11;101858.69;;;-7.02;61.14
84957;BME280;75252;45.438;-73.814;2024-01-16T04:06:37;101866.25;;;-7.05;61.45
84957;BME280;75252;45.438;-73.814;2024-01-16T04:09:03;101886.06;;;-7.04;62.17
84957;BME280;75252;45.438;-73.814;2024-01-16T04:11:30;101891.22;;;-7.04;61.88
84957;BME280;75252;45.438;-73.814;2024-01-16T04:13:56;101881.78;;;-7.03;62.18
84957;BME280;75252;45.438;-73.814;2024-01-16T04:16:22;101882.94;;;-6.97;61.53
84957;BME280;75252;45.438;-73.814;2024-01-16T04:18:48;101885.47;;;-6.98;62.03
84957;BME280;75252;45.438;-73.814;2024-01-16T04:21:14;101896.66;;;-6.98;62.03
84957;BME280;75252;45.438;-73.814;2024-01-16T04:23:41;101903.72;;;-6.94;60.79
84957;BME280;75252;45.438;-73.814;2024-01-16T04:26:08;101900.88;;;-6.81;60.07
84957;BME280;75252;45.438;-73.814;2024-01-16T04:28:34;101897.34;;;-6.83;60.75
84957;BME280;75252;45.438;-73.814;2024-01-16T04:31:00;101899.19;;;-6.80;60.57
84957;BME280;75252;45.438;-73.814;2024-01-16T04:33:27;101912.47;;;-6.71;59.92
84957;BME280;75252;45.438;-73.814;2024-01-16T04:35:53;101910.63;;;-6.74;60.50
84957;BME280;75252;45.438;-73.814;2024-01-16T04:38:19;101912.13;;;-6.79;60.84
84957;BME280;75252;45.438;-73.814;2024-01-16T04:40:45;101908.19;;;-6.71;60.53
84957;BME280;75252;45.438;-73.814;2024-01-16T04:43:10;101906.56;;;-6.69;61.29
84957;BME280;75252;45.438;-73.814;2024-01-16T04:45:36;101893.41;;;-6.75;61.57
84957;BME280;75252;45.438;-73.814;2024-01-16T04:48:02;101903.72;;;-6.75;62.19
84957;BME280;75252;45.438;-73.814;2024-01-16T04:50:28;101908.06;;;-6.74;61.94
84957;BME280;75252;45.438;-73.814;2024-01-16T04:53:00;101907.38;;;-6.70;61.46
84957;BME280;75252;45.438;-73.814;2024-01-16T04:55:29;101906.56;;;-6.69;62.08
84957;BME280;75252;45.438;-73.814;2024-01-16T04:57:56;101893.19;;;-6.79;61.96
84957;BME280;75252;45.438;-73.814;2024-01-16T05:00:22;101906.16;;;-6.78;62.59
84957;BME280;75252;45.438;-73.814;2024-01-16T05:02:48;101877.66;;;-6.81;61.73
84957;BME280;75252;45.438;-73.814;2024-01-16T05:05:14;101891.44;;;-6.80;63.30
84957;BME280;75252;45.438;-73.814;2024-01-16T05:07:40;101888.88;;;-6.80;64.78
84957;BME280;75252;45.438;-73.814;2024-01-16T05:10:10;101893.47;;;-6.73;63.96
84957;BME280;75252;45.438;-73.814;2024-01-16T05:12:40;101899.31;;;-6.77;64.00
84957;BME280;75252;45.438;-73.814;2024-01-16T05:15:06;101888.38;;;-6.72;63.94
84957;BME280;75252;45.438;-73.814;2024-01-16T05:17:33;101900.25;;;-6.75;63.75
84957;BME280;75252;45.438;-73.814;2024-01-16T05:19:59;101899.25;;;-6.79;64.37
84957;BME280;75252;45.438;-73.814;2024-01-16T05:22:25;101899.38;;;-6.76;63.82
84957;BME280;75252;45.438;-73.814;2024-01-16T05:24:52;101894.09;;;-6.79;65.03
84957;BME280;75252;45.438;-73.814;2024-01-16T05:27:17;101890.41;;;-6.84;64.29
84957;BME280;75252;45.438;-73.814;2024-01-16T05:29:43;101885.47;;;-6.79;63.71
84957;BME280;75252;45.438;-73.814;2024-01-16T05:32:09;101880.09;;;-6.84;64.79
84957;BME280;75252;45.438;-73.814;2024-01-16T05:34:35;101871.69;;;-6.80;64.56
84957;BME280;75252;45.438;-73.814;2024-01-16T05:37:01;101860.84;;;-6.73;64.15
84957;BME280;75252;45.438;-73.814;2024-01-16T05:39:27;101864.50;;;-6.68;64.12
84957;BME280;75252;45.438;-73.814;2024-01-16T05:41:52;101872.66;;;-6.59;61.58
84957;BME280;75252;45.438;-73.814;2024-01-16T05:44:19;101874.41;;;-6.58;62.34
84957;BME280;75252;45.438;-73.814;2024-01-16T05:46:44;101873.19;;;-6.66;62.35
84957;BME280;75252;45.438;-73.814;2024-01-16T05:49:10;101878.22;;;-6.69;63.04
84957;BME280;75252;45.438;-73.814;2024-01-16T05:51:36;101869.47;;;-6.72;63.16
84957;BME280;75252;45.438;-73.814;2024-01-16T05:54:02;101876.53;;;-6.68;63.77
84957;BME280;75252;45.438;-73.814;2024-01-16T05:56:30;101876.38;;;-6.71;62.62
84957;BME280;75252;45.438;-73.814;2024-01-16T05:58:56;101870.53;;;-6.67;62.76
84957;BME280;75252;45.438;-73.814;2024-01-16T06:01:22;101865.06;;;-6.75;64.01
84957;BME280;75252;45.438;-73.814;2024-01-16T06:03:48;101867.41;;;-6.79;62.90
84957;BME280;75252;45.438;-73.814;2024-01-16T06:06:14;101860.56;;;-6.79;63.67
84957;BME280;75252;45.438;-73.814;2024-01-16T06:08:40;101867.63;;;-6.75;63.15
84957;BME280;75252;45.438;-73.814;2024-01-16T06:11:06;101865.94;;;-6.74;62.29
84957;BME280;75252;45.438;-73.814;2024-01-16T06:13:32;101870.06;;;-6.78;63.30
84957;BME280;75252;45.438;-73.814;2024-01-16T06:15:58;101872.34;;;-6.84;64.57
84957;BME280;75252;45.438;-73.814;2024-01-16T06:18:24;101865.41;;;-6.86;64.45
84957;BME280;75252;45.438;-73.814;2024-01-16T06:20:50;101870.28;;;-6.92;65.18
84957;BME280;75252;45.438;-73.814;2024-01-16T06:23:16;101875.66;;;-6.88;64.20
84957;BME280;75252;45.438;-73.814;2024-01-16T06:25:41;101869.44;;;-6.91;64.08
84957;BME280;75252;45.438;-73.814;2024-01-16T06:28:07;101869.53;;;-6.90;65.63
84957;BME280;75252;45.438;-73.814;2024-01-16T06:30:33;101876.38;;;-6.90;64.57
84957;BME280;75252;45.438;-73.814;2024-01-16T06:33:00;101880.53;;;-6.94;64.63
84957;BME280;75252;45.438;-73.814;2024-01-16T06:35:26;101878.81;;;-6.93;63.73
84957;BME280;75252;45.438;-73.814;2024-01-16T06:37:52;101876.91;;;-6.97;64.13
84957;BME280;75252;45.438;-73.814;2024-01-16T06:40:18;101879.75;;;-6.91;64.90
84957;BME280;75252;45.438;-73.814;2024-01-16T06:42:44;101877.78;;;-6.97;65.81
84957;BME280;75252;45.438;-73.814;2024-01-16T06:45:10;101877.66;;;-7.00;65.93
84957;BME280;75252;45.438;-73.814;2024-01-16T06:47:38;101875.00;;;-7.01;65.10
84957;BME280;75252;45.438;-73.814;2024-01-16T06:50:04;101875.00;;;-7.01;64.84
84957;BME280;75252;45.438;-73.814;2024-01-16T06:52:31;101882.88;;;-6.98;65.05
84957;BME280;75252;45.438;-73.814;2024-01-16T06:54:56;101879.69;;;-6.93;66.42
84957;BME280;75252;45.438;-73.814;2024-01-16T06:57:22;101875.66;;;-6.88;66.01
84957;BME280;75252;45.438;-73.814;2024-01-16T06:59:48;101866.88;;;-6.91;66.82
84957;BME280;75252;45.438;-73.814;2024-01-16T07:02:15;101871.16;;;-6.92;68.37
84957;BME280;75252;45.438;-73.814;2024-01-16T07:04:41;101868.50;;;-6.93;69.06
84957;BME280;75252;45.438;-73.814;2024-01-16T07:07:06;101872.78;;;-6.94;68.50
84957;BME280;75252;45.438;-73.814;2024-01-16T07:09:33;101871.06;;;-6.93;68.41
84957;BME280;75252;45.438;-73.814;2024-01-16T07:11:59;101877.19;;;-6.91;67.93
84957;BME280;75252;45.438;-73.814;2024-01-16T07:14:24;101869.53;;;-6.90;68.00
84957;BME280;75252;45.438;-73.814;2024-01-16T07:16:50;101876.44;;;-6.89;68.38
84957;BME280;75252;45.438;-73.814;2024-01-16T07:19:16;101872.03;;;-6.91;68.75
84957;BME280;75252;45.438;-73.814;2024-01-16T07:21:42;101881.81;;;-6.84;69.95
84957;BME280;75252;45.438;-73.814;2024-01-16T07:24:10;101875.66;;;-6.88;70.61
84957;BME280;75252;45.438;-73.814;2024-01-16T07:26:36;101868.72;;;-6.89;70.03
84957;BME280;75252;45.438;-73.814;2024-01-16T07:29:02;101871.63;;;-7.00;72.18
84957;BME280;75252;45.438;-73.814;2024-01-16T07:31:28;101857.91;;;-6.99;71.16
84957;BME280;75252;45.438;-73.814;2024-01-16T07:33:54;101860.03;;;-6.91;71.26
84957;BME280;75252;45.438;-73.814;2024-01-16T07:36:20;101852.06;;;-6.95;71.67
84957;BME280;75252;45.438;-73.814;2024-01-16T07:38:46;101857.38;;;-6.92;71.16
84957;BME280;75252;45.438;-73.814;2024-01-16T07:41:11;101852.69;;;-7.01;71.15
84957;BME280;75252;45.438;-73.814;2024-01-16T07:43:37;101844.22;;;-6.98;70.55
84957;BME280;75252;45.438;-73.814;2024-01-16T07:46:03;101830.56;;;-7.15;70.89
84957;BME280;75252;45.438;-73.814;2024-01-16T07:48:29;101842.09;;;-7.07;70.62
84957;BME280;75252;45.438;-73.814;2024-01-16T07:50:55;101835.25;;;-7.06;70.52
84957;BME280;75252;45.438;-73.814;2024-01-16T07:53:21;101815.38;;;-7.09;70.46
84957;BME280;75252;45.438;-73.814;2024-01-16T07:55:47;101819.53;;;-7.12;70.59
84957;BME280;75252;45.438;-73.814;2024-01-16T07:58:13;101816.75;;;-7.17;70.82
84957;BME280;75252;45.438;-73.814;2024-01-16T08:00:39;101803.72;;;-7.20;70.36
84957;BME280;75252;45.438;-73.814;2024-01-16T08:03:08;101808.06;;;-7.19;71.68
84957;BME280;75252;45.438;-73.814;2024-01-16T08:05:37;101811.47;;;-7.20;70.40
84957;BME280;75252;45.438;-73.814;2024-01-16T08:08:04;101812.25;;;-7.21;71.34
84957;BME280;75252;45.438;-73.814;2024-01-16T08:10:31;101812.19;;;-7.23;69.91
84957;BME280;75252;45.438;-73.814;2024-01-16T08:12:56;101814.16;;;-7.17;69.51
84957;BME280;75252;45.438;-73.814;2024-01-16T08:15:22;101818.53;;;-7.16;70.96
84957;BME280;75252;45.438;-73.814;2024-01-16T08:17:48;101817.56;;;-7.18;71.25
84957;BME280;75252;45.438;-73.814;2024-01-16T08:20:14;101825.22;;;-7.20;70.82
84957;BME280;75252;45.438;-73.814;2024-01-16T08:22:40;101800.66;;;-7.31;71.41
84957;BME280;75252;45.438;-73.814;2024-01-16T08:25:06;101824.28;;;-7.22;70.17
84957;BME280;75252;45.438;-73.814;2024-01-16T08:27:32;101820.75;;;-7.24;70.06
84957;BME280;75252;45.438;-73.814;2024-01-16T08:29:58;101811.19;;;-7.26;69.16
84957;BME280;75252;45.438;-73.814;2024-01-16T08:32:24;101822.03;;;-7.33;71.31
84957;BME280;75252;45.438;-73.814;2024-01-16T08:34:50;101834.16;;;-7.31;70.67
84957;BME280;75252;45.438;-73.814;2024-01-16T08:37:16;101821.50;;;-7.26;70.37
84957;BME280;75252;45.438;-73.814;2024-01-16T08:39:42;101816.28;;;-7.28;71.69
84957;BME280;75252;45.438;-73.814;2024-01-16T08:42:09;101815.59;;;-7.24;69.41
84957;BME280;75252;45.438;-73.814;2024-01-16T08:44:38;101811.25;;;-7.25;70.27
84957;BME280;75252;45.438;-73.814;2024-01-16T08:47:05;101800.88;;;-7.26;71.75
84957;BME280;75252;45.438;-73.814;2024-01-16T08:49:32;101788.88;;;-7.26;69.94
84957;BME280;75252;45.438;-73.814;2024-01-16T08:51:58;101801.00;;;-7.23;72.23
84957;BME280;75252;45.438;-73.814;2024-01-16T08:54:25;101798.38;;;-7.25;71.57
84957;BME280;75252;45.438;-73.814;2024-01-16T08:56:52;101797.63;;;-7.22;71.66
84957;BME280;75252;45.438;-73.814;2024-01-16T08:59:18;101792.47;;;-7.22;70.75
84957;BME280;75252;45.438;-73.814;2024-01-16T09:01:44;101797.91;;;-7.16;70.57
84957;BME280;75252;45.438;-73.814;2024-01-16T09:04:10;101785.97;;;-7.14;70.17
84957;BME280;75252;45.438;-73.814;2024-01-16T09:06:35;101778.31;;;-7.12;70.66
84957;BME280;75252;45.438;-73.814;2024-01-16T09:09:01;101784.97;;;-7.18;70.86
84957;BME280;75252;45.438;-73.814;2024-01-16T09:11:30;101766.84;;;-7.19;72.71
84957;BME280;75252;45.438;-73.814;2024-01-16T09:13:56;101773.63;;;-7.21;70.74
84957;BME280;75252;45.438;-73.814;2024-01-16T09:16:21;101770.31;;;-7.19;70.42
84957;BME280;75252;45.438;-73.814;2024-01-16T09:18:47;101761.63;;;-7.21;70.61
84957;BME280;75252;45.438;-73.814;2024-01-16T09:21:14;101750.88;;;-7.31;69.41
84957;BME280;75252;45.438;-73.814;2024-01-16T09:23:40;101755.06;;;-7.33;71.43
84957;BME280;75252;45.438;-73.814;2024-01-16T09:26:06;101750.72;;;-7.34;71.18
84957;BME280;75252;45.438;-73.814;2024-01-16T09:28:32;101733.09;;;-7.44;72.37
84957;BME280;75252;45.438;-73.814;2024-01-16T09:30:58;101742.03;;;-7.36;71.49
84957;BME280;75252;45.438;-73.814;2024-01-16T09:33:24;101737.63;;;-7.39;72.26
84957;BME280;75252;45.438;-73.814;2024-01-16T09:35:51;101733.41;;;-7.37;72.79
84957;BME280;75252;45.438;-73.814;2024-01-16T09:38:17;101741.03;;;-7.40;71.55
84957;BME280;75252;45.438;-73.814;2024-01-16T09:40:43;101718.75;;;-7.39;70.12
84957;BME280;75252;45.438;-73.814;2024-01-16T09:43:09;101728.09;;;-7.41;69.65
84957;BME280;75252;45.438;-73.814;2024-01-16T09:45:40;101727.47;;;-7.36;70.56
84957;BME280;75252;45.438;-73.814;2024-01-16T09:48:06;101734.25;;;-7.38;69.80
84957;BME280;75252;45.438;-73.814;2024-01-16T09:50:33;101729.72;;;-7.43;70.24
84957;BME280;75252;45.438;-73.814;2024-01-16T09:53:00;101730.50;;;-7.44;70.05
84957;BME280;75252;45.438;-73.814;2024-01-16T09:55:26;101716.69;;;-7.46;70.95
84957;BME280;75252;45.438;-73.814;2024-01-16T09:57:52;101724.41;;;-7.46;72.09
84957;BME280;75252;45.438;-73.814;2024-01-16T10:00:21;101715.06;;;-7.44;72.26
84957;BME280;75252;45.438;-73.814;2024-01-16T10:02:48;101711.75;;;-7.42;71.94
84957;BME280;75252;45.438;-73.814;2024-01-16T10:05:15;101709.03;;;-7.45;72.22
84957;BME280;75252;45.438;-73.814;2024-01-16T10:07:42;101715.78;;;-7.47;72.77
84957;BME280;75252;45.438;-73.814;2024-01-16T10:10:11;101716.69;;;-7.46;72.54
84957;BME280;75252;45.438;-73.814;2024-01-16T10:12:39;101715.88;;;-7.45;73.36
84957;BME280;75252;45.438;-73.814;2024-01-16T10:15:08;101709.22;;;-7.40;71.50
84957;BME280;75252;45.438;-73.814;2024-01-16T10:17:39;101694.47;;;-7.44;72.32
84957;BME280;75252;45.438;-73.814;2024-01-16T10:20:06;101685.78;;;-7.46;72.33
84957;BME280;75252;45.438;-73.814;2024-01-16T10:22:33;101678.94;;;-7.46;73.46
84957;BME280;75252;45.438;-73.814;2024-01-16T10:27:34;101659.22;;;-7.45;73.03
84957;BME280;75252;45.438;-73.814;2024-01-16T10:30:01;101655.72;;;-7.47;72.74
84957;BME280;75252;45.438;-73.814;2024-01-16T10:32:30;101651.31;;;-7.50;73.37
84957;BME280;75252;45.438;-73.814;2024-01-16T10:37:51;101637.41;;;-7.53;73.15
84957;BME280;75252;45.438;-73.814;2024-01-16T10:40:22;101642.97;;;-7.44;73.45
84957;BME280;75252;45.438;-73.814;2024-01-16T10:43:04;101636.91;;;-7.45;72.42
84957;BME280;75252;45.438;-73.814;2024-01-16T10:45:31;101637.00;;;-7.43;71.22
84957;BME280;75252;45.438;-73.814;2024-01-16T10:48:07;101639.16;;;-7.52;71.83
84957;BME280;75252;45.438;-73.814;2024-01-16T10:50:34;101631.50;;;-7.51;72.65
84957;BME280;75252;45.438;-73.814;2024-01-16T10:53:04;101630.69;;;-7.50;72.89
84957;BME280;75252;45.438;-73.814;2024-01-16T10:55:30;101622.88;;;-7.53;73.10
84957;BME280;75252;45.438;-73.814;2024-01-16T10:57:57;101622.03;;;-7.52;73.17
84957;BME280;75252;45.438;-73.814;2024-01-16T11:00:26;101609.91;;;-7.54;72.66
84957;BME280;75252;45.438;-73.814;2024-01-16T11:03:05;101624.53;;;-7.53;73.69
84957;BME280;75252;45.438;-73.814;2024-01-16T11:05:32;101620.75;;;-7.61;73.13
84957;BME280;75252;45.438;-73.814;2024-01-16T11:08:01;101625.63;;;-7.67;74.49
84957;BME280;75252;45.438;-73.814;2024-01-16T11:10:27;101631.69;;;-7.67;73.97
84957;BME280;75252;45.438;-73.814;2024-01-16T11:12:55;101622.44;;;-7.62;73.71
84957;BME280;75252;45.438;-73.814;2024-01-16T11:15:21;101628.16;;;-7.69;73.27
84957;BME280;75252;45.438;-73.814;2024-01-16T11:17:51;101626.69;;;-7.62;72.66
84957;BME280;75252;45.438;-73.814;2024-01-16T11:20:18;101629.00;;;-7.68;73.35
84957;BME280;75252;45.438;-73.814;2024-01-16T11:22:45;101624.75;;;-7.68;71.45
84957;BME280;75252;45.438;-73.814;2024-01-16T11:25:12;101637.28;;;-7.75;72.50
84957;BME280;75252;45.438;-73.814;2024-01-16T11:27:42;101641.69;;;-7.73;71.46
84957;BME280;75252;45.438;-73.814;2024-01-16T11:30:10;101649.09;;;-7.80;71.30
84957;BME280;75252;45.438;-73.814;2024-01-16T11:32:41;101651.22;;;-7.89;71.94
84957;BME280;75252;45.438;-73.814;2024-01-16T11:35:08;101668.44;;;-7.88;71.75
84957;BME280;75252;45.438;-73.814;2024-01-16T11:37:35;101660.63;;;-7.90;72.28
84957;BME280;75252;45.438;-73.814;2024-01-16T11:42:51;101668.28;;;-7.91;72.27
84957;BME280;75252;45.438;-73.814;2024-01-16T11:48:12;101675.81;;;-7.96;73.46
84957;BME280;75252;45.438;-73.814;2024-01-16T11:50:39;101677.63;;;-7.93;72.70
84957;BME280;75252;45.438;-73.814;2024-01-16T11:53:06;101672.47;;;-7.93;73.34
84957;BME280;75252;45.438;-73.814;2024-01-16T11:55:33;101670.53;;;-7.80;73.49
84957;BME280;75252;45.438;-73.814;2024-01-16T12:00:32;101667.34;;;-7.93;73.77
84957;BME280;75252;45.438;-73.814;2024-01-16T12:03:02;101653.53;;;-7.95;73.48
84957;BME280;75252;45.438;-73.814;2024-01-16T12:05:31;101643.16;;;-7.97;73.83
84957;BME280;75252;45.438;-73.814;2024-01-16T12:07:57;101648.81;;;-7.86;74.53
84957;BME280;75252;45.438;-73.814;2024-01-16T12:10:24;101647.97;;;-7.85;74.18
84957;BME280;75252;45.438;-73.814;2024-01-16T12:12:57;101646.28;;;-7.85;74.28
84957;BME280;75252;45.438;-73.814;2024-01-16T12:15:23;101646.50;;;-7.80;75.24
84957;BME280;75252;45.438;-73.814;2024-01-16T12:18:01;101641.69;;;-7.73;74.27
84957;BME280;75252;45.438;-73.814;2024-01-16T12:20:30;101629.63;;;-7.74;74.58
84957;BME280;75252;45.438;-73.814;2024-01-16T12:23:14;101626.38;;;-7.70;74.37
84957;BME280;75252;45.438;-73.814;2024-01-16T12:25:40;101627.31;;;-7.68;73.49
84957;BME280;75252;45.438;-73.814;2024-01-16T12:28:07;101618.91;;;-7.64;73.68
84957;BME280;75252;45.438;-73.814;2024-01-16T12:30:37;101610.31;;;-7.64;73.75
84957;BME280;75252;45.438;-73.814;2024-01-16T12:33:06;101620.88;;;-7.58;73.65
84957;BME280;75252;45.438;-73.814;2024-01-16T12:35:36;101608.94;;;-7.56;73.90
84957;BME280;75252;45.438;-73.814;2024-01-16T12:38:04;101606.56;;;-7.52;73.95
84957;BME280;75252;45.438;-73.814;2024-01-16T12:40:37;101596.50;;;-7.47;74.05
84957;BME280;75252;45.438;-73.814;2024-01-16T12:43:06;101591.75;;;-7.37;73.48